Terminal Aerodrome Forecast
Issued by NWS Shreveport, LA

Home | Current Version | Previous Version | Text Only | Print | Product List | Glossary On
Versions: 1 2 3 4 5 6 7 8 9 10 11 12 13 14 15 16 17
744
FTUS44 KSHV 031130
TAFELD
TAF
KELD 031130Z 0312/0412 34006KT P6SM BKN045
      TEMPO 0312/0316 BKN030
     FM032000 33007KT P6SM SCT045
     FM040000 33003KT P6SM FEW050 SCT250=

USA.gov is the U.S. government's official web portal to all federal, state and local government web resources and services.